Mugan — 9HA2962 — position and weather

sailwx.info

Track history (hours):
 
Tides and Currents Weather Stations Pressure Air Temp Water Temp Dewpoint Dewpoint Depression Visibility Wind Speed Wind Dir Waves Ship Positions

Mugan

Last reported at 2015-Feb-25 16:12 UTC. Time now 2015-Mar-04 00:12 UTC.
Position N 41°22' E 029°14'.

Length 140 m; draft 3.3 m.

Type: Ship. MMSI: 256914000.

Date/timePositionNaut miles runAvg speedWind from/ knotsBaromVisibWave heightAir tempDewpointWater temp
2015-Feb-25 16:12N 41°22' E 029°14'25 9.0
2015-Feb-25 13:26N 40°59' E 028°60'5 5.2
2015-Feb-25 12:32N 40°56' E 028°55'2 0.2
2015-Feb-25 05:05N 40°57' E 028°53'0 0.1
2015-Feb-25 04:23N 40°57' E 028°53'0 0.0
2015-Feb-25 01:29N 40°57' E 028°53'0 0.1
2015-Feb-25 00:29N 40°57' E 028°53'0 0.1
2015-Feb-24 23:29N 40°57' E 028°53'1 0.9
2015-Feb-24 22:31N 40°56' E 028°53'11 8.8
2015-Feb-24 21:14N 40°47' E 028°44'4 6.5
2015-Feb-24 20:32N 40°49' E 028°39'232 7.9
2015-Feb-23 15:08N 37°36' E 025°53'5 9.3
2015-Feb-23 14:32N 37°31' E 025°52'49 9.7
2015-Feb-23 09:30N 36°48' E 026°21'  
Track history (hours):
 
Tides and Currents Weather Stations Pressure Air Temp Water Temp Dewpoint Dewpoint Depression Visibility Wind Speed Wind Dir Waves Ship Positions

Mugan

Last reported at 2015-Feb-25 16:12 UTC. Time now 2015-Mar-04 00:12 UTC.
Position N 41°22' E 029°14'.

Length 140 m; draft 3.3 m.

Type: Ship. MMSI: 256914000.

Date/timePositionNaut miles runAvg speedWind from/ knotsBaromVisibWave heightAir tempDewpointWater temp
2015-Feb-25 16:12N 41°22' E 029°14'25 9.0
2015-Feb-25 13:26N 40°59' E 028°60'5 5.2
2015-Feb-25 12:32N 40°56' E 028°55'2 0.2
2015-Feb-25 05:05N 40°57' E 028°53'0 0.1
2015-Feb-25 04:23N 40°57' E 028°53'0 0.0
2015-Feb-25 01:29N 40°57' E 028°53'0 0.1
2015-Feb-25 00:29N 40°57' E 028°53'0 0.1
2015-Feb-24 23:29N 40°57' E 028°53'1 0.9
2015-Feb-24 22:31N 40°56' E 028°53'11 8.8
2015-Feb-24 21:14N 40°47' E 028°44'4 6.5
2015-Feb-24 20:32N 40°49' E 028°39'232 7.9
2015-Feb-23 15:08N 37°36' E 025°53'5 9.3
2015-Feb-23 14:32N 37°31' E 025°52'49 9.7
2015-Feb-23 09:30N 36°48' E 026°21'  

Dump ship's entire track history